Terminal Aerodrome Forecast
Issued by NWS Cleveland, OH

Home | Current Version | Previous Version | Text Only | Print | Product List | Glossary On
Versions: 1 2 3 4 5 6 7 8 9 10 11 12 13 14 15
077
FTUS41 KCLE 071132
TAFMFD
TAF
KMFD 071132Z 0712/0812 20007KT P6SM SCT050
     FM071300 20010KT P6SM BKN250
     FM071700 20010G20KT P6SM OVC250
     FM072300 18010KT P6SM OVC100
     FM080700 19009KT 4SM -RA BR OVC015
     FM081100 18007KT 1 1/2SM -RA BR OVC003=

USA.gov is the U.S. government's official web portal to all federal, state and local government web resources and services.